createdAt,value
2018-09-20T00:01:48.705Z,5.07
2018-09-20T00:04:16.077Z,5.93
2018-09-20T00:06:43.570Z,6.97
2018-09-20T00:09:10.964Z,6.73
2018-09-20T00:11:38.365Z,6.63
2018-09-20T00:14:05.841Z,6.87
2018-09-20T00:16:33.256Z,7.27
2018-09-20T00:19:00.719Z,6.10
2018-09-20T00:21:28.108Z,6.97
2018-09-20T00:23:55.510Z,6.43
2018-09-20T00:26:22.982Z,6.93
2018-09-20T00:28:50.378Z,7.17
2018-09-20T00:31:17.869Z,7.13
2018-09-20T00:33:45.368Z,6.80
2018-09-20T00:36:12.753Z,6.87
2018-09-20T00:38:40.150Z,6.90
2018-09-20T00:41:07.630Z,6.97
2018-09-20T00:43:35.026Z,6.70
2018-09-20T00:46:02.463Z,7.30
2018-09-20T00:48:29.855Z,7.00
2018-09-20T00:50:57.356Z,6.20
2018-09-20T00:53:24.753Z,6.73
2018-09-20T00:55:52.194Z,6.67
2018-09-20T00:58:19.614Z,6.63
2018-09-20T01:00:47.027Z,6.80
2018-09-20T01:03:14.489Z,6.90
2018-09-20T01:05:41.894Z,6.60
2018-09-20T01:08:09.280Z,6.40
2018-09-20T01:10:36.696Z,7.53
2018-09-20T01:13:04.091Z,6.87
2018-09-20T01:15:31.605Z,6.70
2018-09-20T01:17:59.021Z,6.87
2018-09-20T01:20:26.415Z,6.93
2018-09-20T01:22:53.876Z,6.47
2018-09-20T01:25:21.289Z,6.93
2018-09-20T01:27:49.109Z,6.43
2018-09-20T01:30:16.601Z,6.63
2018-09-20T01:32:44.066Z,6.50
2018-09-20T01:35:11.452Z,6.20
2018-09-20T01:37:38.870Z,6.00
2018-09-20T01:40:06.462Z,6.17
2018-09-20T01:42:33.877Z,5.77
2018-09-20T01:45:01.277Z,5.87
2018-09-20T01:47:28.725Z,5.97
2018-09-20T01:49:56.100Z,6.07
2018-09-20T01:52:23.463Z,5.83
2018-09-20T01:54:50.898Z,5.97
2018-09-20T01:57:18.418Z,6.40
2018-09-20T01:59:45.905Z,5.97
2018-09-20T02:02:13.308Z,5.67
2018-09-20T02:04:40.692Z,6.00
2018-09-20T02:07:08.111Z,6.30
2018-09-20T02:09:35.502Z,6.57
2018-09-20T02:12:03.009Z,6.47
2018-09-20T02:14:30.384Z,6.10
2018-09-20T02:16:57.825Z,6.30
2018-09-20T02:19:25.253Z,5.77
2018-09-20T02:21:52.713Z,5.93
2018-09-20T02:24:20.133Z,6.20
2018-09-20T02:26:47.561Z,6.23
2018-09-20T02:29:15.056Z,6.33
2018-09-20T02:31:42.476Z,6.13
2018-09-20T02:34:09.869Z,6.33
2018-09-20T02:36:37.426Z,6.93
2018-09-20T02:39:07.120Z,6.47
2018-09-20T02:41:34.656Z,6.83
2018-09-20T02:44:02.106Z,5.70
2018-09-20T02:46:29.534Z,5.53
2018-09-20T02:48:56.967Z,6.33
2018-09-20T02:51:24.451Z,5.87
2018-09-20T02:53:51.905Z,5.57
2018-09-20T02:56:19.322Z,5.60
2018-09-20T02:58:46.764Z,6.00
2018-09-20T03:01:14.225Z,5.67
2018-09-20T03:03:41.665Z,5.80
2018-09-20T03:06:09.068Z,5.67
2018-09-20T03:08:36.501Z,6.10
2018-09-20T03:11:03.954Z,5.67
2018-09-20T03:13:31.409Z,6.10
2018-09-20T03:15:58.811Z,5.73
2018-09-20T03:18:26.224Z,5.93
2018-09-20T03:20:53.690Z,5.63
2018-09-20T03:23:21.132Z,5.93
2018-09-20T03:25:48.569Z,5.33
2018-09-20T03:28:15.988Z,5.80
2018-09-20T03:30:43.581Z,6.20
2018-09-20T03:33:10.920Z,5.43
2018-09-20T03:35:38.342Z,6.00
2018-09-20T03:38:05.891Z,5.60
2018-09-20T03:40:33.271Z,5.60
2018-09-20T03:43:00.653Z,5.80
2018-09-20T03:45:28.149Z,5.87
2018-09-20T03:47:55.534Z,5.27
2018-09-20T03:50:22.917Z,5.47
2018-09-20T03:52:50.334Z,5.87
2018-09-20T03:55:17.966Z,5.73
2018-09-20T03:57:45.540Z,6.00
2018-09-20T04:00:12.996Z,5.47
2018-09-20T04:02:40.381Z,5.30
2018-09-20T04:05:07.831Z,5.60
2018-09-20T04:07:35.360Z,5.60
2018-09-20T04:10:02.790Z,5.57
2018-09-20T04:12:30.240Z,5.20
2018-09-20T04:14:57.662Z,5.77
2018-09-20T04:17:25.037Z,5.70
2018-09-20T04:19:52.509Z,5.50
2018-09-20T04:22:19.941Z,5.40
2018-09-20T04:24:47.305Z,4.37
2018-09-20T04:27:14.832Z,3.60
2018-09-20T04:29:42.239Z,3.30
2018-09-20T04:32:09.846Z,3.43
2018-09-20T04:34:37.309Z,3.70
2018-09-20T04:37:04.765Z,3.40
2018-09-20T04:39:32.302Z,3.80
2018-09-20T04:41:59.691Z,3.73
2018-09-20T04:44:27.128Z,3.20
2018-09-20T04:46:54.653Z,2.93
2018-09-20T04:49:22.232Z,2.83
2018-09-20T04:51:49.783Z,3.00
2018-09-20T04:54:17.304Z,3.00
2018-09-20T04:56:44.689Z,2.87
2018-09-20T04:59:12.342Z,2.23
2018-09-20T05:01:39.798Z,2.20
2018-09-20T05:04:07.369Z,2.30
2018-09-20T05:06:34.826Z,2.43
2018-09-20T05:09:02.309Z,2.20
2018-09-20T05:11:29.781Z,2.23
2018-09-20T05:13:57.210Z,2.77
2018-09-20T05:16:24.720Z,2.60
2018-09-20T05:18:52.203Z,3.00
2018-09-20T05:21:19.585Z,2.67
2018-09-20T05:23:46.975Z,3.10
2018-09-20T05:26:14.380Z,3.10
2018-09-20T05:28:41.936Z,3.13
2018-09-20T05:31:09.321Z,3.27
2018-09-20T05:33:36.734Z,4.20
2018-09-20T05:36:04.140Z,4.50
2018-09-20T05:38:31.500Z,4.07
2018-09-20T05:40:58.973Z,3.80
2018-09-20T05:43:26.423Z,4.40
2018-09-20T05:45:53.843Z,4.50
2018-09-20T05:48:21.255Z,4.57
2018-09-20T05:50:48.684Z,4.90
2018-09-20T05:53:16.088Z,4.80
2018-09-20T05:55:44.120Z,4.97
2018-09-20T05:58:11.522Z,4.40
2018-09-20T06:00:38.946Z,4.97
2018-09-20T06:03:06.374Z,4.90
2018-09-20T06:05:33.854Z,5.53
2018-09-20T06:08:01.267Z,5.10
2018-09-20T06:10:28.643Z,4.97
2018-09-20T06:12:56.099Z,6.10
2018-09-20T06:15:23.519Z,5.43
2018-09-20T06:17:50.966Z,4.87
2018-09-20T06:20:18.413Z,5.10
2018-09-20T06:22:45.823Z,5.23
2018-09-20T06:25:13.229Z,5.20
2018-09-20T06:27:40.721Z,5.40
2018-09-20T06:30:08.107Z,5.33
2018-09-20T06:32:35.582Z,4.63
2018-09-20T06:35:03.075Z,4.87
2018-09-20T06:37:30.487Z,5.17
2018-09-20T06:39:57.846Z,5.20
2018-09-20T06:42:25.289Z,5.63
2018-09-20T06:44:52.669Z,5.03
2018-09-20T06:47:20.077Z,4.77
2018-09-20T06:49:47.520Z,4.60
2018-09-20T06:52:14.952Z,5.30
2018-09-20T06:54:42.348Z,5.03
2018-09-20T06:57:10.033Z,5.10
2018-09-20T06:59:37.459Z,4.67
2018-09-20T07:02:04.890Z,4.33
2018-09-20T07:04:32.337Z,4.70
2018-09-20T07:06:59.770Z,4.00
2018-09-20T07:09:27.157Z,4.70
2018-09-20T07:11:54.568Z,4.10
2018-09-20T07:14:21.968Z,3.90
2018-09-20T07:16:49.525Z,4.30
2018-09-20T07:19:16.958Z,3.80
2018-09-20T07:21:44.337Z,4.13
2018-09-20T07:24:11.778Z,4.47
2018-09-20T07:26:39.205Z,4.07
2018-09-20T07:29:06.699Z,4.10
2018-09-20T07:31:34.117Z,4.00
2018-09-20T07:34:01.590Z,4.20
2018-09-20T07:36:29.006Z,3.53
2018-09-20T07:38:56.399Z,4.00
2018-09-20T07:41:23.830Z,3.33
2018-09-20T07:43:51.200Z,3.30
2018-09-20T07:46:18.673Z,3.33
2018-09-20T07:48:46.058Z,3.17
2018-09-20T07:51:13.476Z,3.60
2018-09-20T07:53:41.065Z,3.60
2018-09-20T07:56:08.498Z,3.80
2018-09-20T07:58:35.893Z,3.30
2018-09-20T08:01:03.322Z,3.20
2018-09-20T08:03:30.806Z,3.73
2018-09-20T08:05:58.188Z,3.37
2018-09-20T08:08:25.571Z,3.73
2018-09-20T08:10:53.046Z,3.43
2018-09-20T08:13:20.427Z,3.70
2018-09-20T08:15:47.838Z,3.47
2018-09-20T08:18:15.343Z,3.57
2018-09-20T08:20:42.946Z,3.60
2018-09-20T08:23:10.454Z,3.90
2018-09-20T08:25:37.886Z,4.60
2018-09-20T08:28:05.354Z,3.67
2018-09-20T08:30:32.743Z,4.67
2018-09-20T08:33:00.134Z,4.40
2018-09-20T08:35:27.592Z,4.17
2018-09-20T08:37:55.017Z,3.90
2018-09-20T08:40:22.397Z,4.13
2018-09-20T08:42:49.933Z,3.57
2018-09-20T08:45:17.349Z,3.47
2018-09-20T08:47:44.748Z,3.60
2018-09-20T08:50:12.221Z,3.60
2018-09-20T08:53:26.841Z,3.67
2018-09-20T08:55:54.330Z,3.80
2018-09-20T08:58:21.735Z,3.43
2018-09-20T09:00:49.205Z,3.40
2018-09-20T09:03:16.610Z,3.27
2018-09-20T09:05:44.026Z,3.47
2018-09-20T09:08:11.474Z,3.57
2018-09-20T09:10:38.909Z,3.50
2018-09-20T09:13:06.331Z,3.73
2018-09-20T09:15:33.778Z,3.50
2018-09-20T09:18:01.266Z,3.33
2018-09-20T09:20:28.674Z,3.70
2018-09-20T09:22:56.079Z,3.30
2018-09-20T09:25:23.525Z,3.33
2018-09-20T09:27:50.965Z,3.63
2018-09-20T09:30:18.413Z,3.50
2018-09-20T09:32:45.853Z,3.40
2018-09-20T09:35:13.303Z,3.73
2018-09-20T09:37:40.759Z,3.30
2018-09-20T09:40:08.349Z,3.83
2018-09-20T09:42:35.750Z,3.60
2018-09-20T09:45:03.191Z,4.10
2018-09-20T09:47:30.661Z,3.47
2018-09-20T09:49:58.048Z,3.50
2018-09-20T09:52:25.526Z,3.43
2018-09-20T09:54:53.019Z,3.20
2018-09-20T09:57:20.368Z,3.90
2018-09-20T09:59:47.872Z,3.33
2018-09-20T10:02:15.245Z,3.60
2018-09-20T10:04:42.693Z,3.37
2018-09-20T10:07:10.154Z,3.13
2018-09-20T10:09:37.541Z,3.83
2018-09-20T10:12:05.054Z,3.50
2018-09-20T10:14:32.532Z,3.90
2018-09-20T10:16:59.987Z,3.87
2018-09-20T10:19:27.399Z,3.80
2018-09-20T10:21:54.877Z,3.57
2018-09-20T10:24:22.249Z,4.17
2018-09-20T10:26:49.634Z,3.97
2018-09-20T10:29:17.121Z,3.50
2018-09-20T10:31:44.658Z,3.97
2018-09-20T10:34:12.106Z,3.40
2018-09-20T10:36:39.452Z,4.17
2018-09-20T10:39:09.317Z,3.93
2018-09-20T10:41:36.774Z,4.30
2018-09-20T10:44:04.187Z,3.90
2018-09-20T10:46:31.611Z,3.43
2018-09-20T10:48:59.100Z,3.70
2018-09-20T10:51:26.521Z,3.30
2018-09-20T10:53:53.969Z,3.30
2018-09-20T10:56:21.410Z,3.33
2018-09-20T10:58:48.861Z,2.83
2018-09-20T11:01:16.347Z,3.10
2018-09-20T11:03:43.820Z,3.50
2018-09-20T11:06:11.226Z,3.30
2018-09-20T11:08:38.625Z,2.50
2018-09-20T11:11:06.175Z,2.60
2018-09-20T11:13:33.513Z,2.40
2018-09-20T11:16:01.010Z,2.40
2018-09-20T11:18:28.432Z,2.33
2018-09-20T11:20:55.861Z,2.60
2018-09-20T11:23:23.319Z,1.93
2018-09-20T11:25:50.806Z,2.10
2018-09-20T11:28:18.202Z,2.10
2018-09-20T11:30:45.667Z,2.10
2018-09-20T11:33:13.140Z,1.80
2018-09-20T11:35:40.629Z,1.80
2018-09-20T11:38:08.105Z,1.80
2018-09-20T11:40:35.520Z,1.83
2018-09-20T11:43:02.961Z,1.60
2018-09-20T11:45:30.389Z,1.50
2018-09-20T11:47:57.813Z,1.37
2018-09-20T11:50:25.217Z,1.30
2018-09-20T11:52:52.629Z,1.07
2018-09-20T11:55:20.094Z,1.20
2018-09-20T11:57:47.513Z,1.20
2018-09-20T12:00:18.935Z,1.13
2018-09-20T12:02:46.385Z,1.43
2018-09-20T12:05:13.818Z,1.10
2018-09-20T12:07:41.229Z,1.30
2018-09-20T12:10:08.721Z,1.40
2018-09-20T12:12:36.125Z,1.40
2018-09-20T12:15:03.681Z,1.03
2018-09-20T12:17:31.123Z,1.47
2018-09-20T12:19:58.559Z,1.10
2018-09-20T12:22:25.975Z,1.23
2018-09-20T12:24:53.374Z,0.90
2018-09-20T12:27:20.801Z,1.30
2018-09-20T12:29:48.224Z,1.50
2018-09-20T12:32:15.701Z,1.43
2018-09-20T12:34:43.135Z,1.10
2018-09-20T12:37:10.545Z,1.40
2018-09-20T12:39:37.969Z,0.90
2018-09-20T12:42:05.446Z,1.20
2018-09-20T12:44:32.866Z,1.10
2018-09-20T12:47:00.321Z,1.17
2018-09-20T12:49:27.921Z,1.23
2018-09-20T12:51:55.420Z,1.13
2018-09-20T12:54:22.807Z,1.03
2018-09-20T12:56:50.283Z,0.93
2018-09-20T12:59:17.874Z,1.10
2018-09-20T13:01:45.285Z,1.00
2018-09-20T13:04:12.807Z,0.83
2018-09-20T13:06:40.299Z,0.77
2018-09-20T13:09:09.043Z,0.70
2018-09-20T13:11:36.585Z,0.90
2018-09-20T13:14:04.032Z,0.77
2018-09-20T13:16:31.587Z,0.63
2018-09-20T13:18:59.020Z,0.70
2018-09-20T13:21:26.600Z,1.10
2018-09-20T13:23:54.009Z,1.03
2018-09-20T13:26:21.495Z,1.10
2018-09-20T13:28:48.893Z,0.73
2018-09-20T13:31:16.434Z,0.90
2018-09-20T13:33:43.879Z,0.80
2018-09-20T13:36:11.426Z,0.60
2018-09-20T13:38:38.825Z,0.80
2018-09-20T13:41:06.419Z,0.70
2018-09-20T13:43:33.990Z,0.70
2018-09-20T13:46:01.412Z,0.60
2018-09-20T13:48:28.830Z,0.43
2018-09-20T13:50:56.368Z,0.70
2018-09-20T13:53:23.765Z,0.80
2018-09-20T13:55:51.217Z,0.70
2018-09-20T13:58:18.873Z,0.67
2018-09-20T14:00:46.294Z,0.60
2018-09-20T14:03:13.698Z,0.50
2018-09-20T14:05:41.207Z,0.60
2018-09-20T14:08:08.602Z,0.47
2018-09-20T14:10:36.031Z,0.77
2018-09-20T14:13:03.525Z,0.50
2018-09-20T14:15:30.992Z,0.70
2018-09-20T14:17:58.365Z,0.80
2018-09-20T14:20:25.833Z,0.70
2018-09-20T14:22:53.278Z,0.70
2018-09-20T14:25:20.766Z,0.60
2018-09-20T14:27:48.238Z,0.53
2018-09-20T14:30:15.631Z,0.60
2018-09-20T14:32:43.239Z,0.50
2018-09-20T14:35:10.750Z,0.70
2018-09-20T14:37:38.261Z,0.90
2018-09-20T14:40:05.689Z,0.47
2018-09-20T14:42:33.152Z,0.60
2018-09-20T14:45:00.626Z,0.40
2018-09-20T14:47:28.016Z,0.70
2018-09-20T14:49:55.499Z,1.00
2018-09-20T14:52:22.927Z,1.30
2018-09-20T14:54:50.309Z,0.80
2018-09-20T14:57:17.767Z,1.00
2018-09-20T14:59:45.182Z,1.17
2018-09-20T15:02:12.681Z,1.10
2018-09-20T15:04:40.138Z,1.40
2018-09-20T15:07:07.621Z,0.93
2018-09-20T15:09:35.027Z,0.90
2018-09-20T15:12:02.598Z,1.00
2018-09-20T15:14:30.005Z,1.20
2018-09-20T15:16:57.493Z,1.20
2018-09-20T15:19:24.900Z,0.90
2018-09-20T15:21:52.389Z,0.70
2018-09-20T15:24:19.805Z,0.63
2018-09-20T15:26:47.261Z,0.60
2018-09-20T15:29:14.673Z,0.50
2018-09-20T15:31:42.094Z,0.40
2018-09-20T15:34:09.596Z,0.40
2018-09-20T15:36:37.004Z,0.30
2018-09-20T15:39:07.717Z,0.40
2018-09-20T15:41:35.186Z,0.20
2018-09-20T15:44:02.696Z,0.33
2018-09-20T15:46:30.101Z,0.50
2018-09-20T15:48:57.537Z,0.30
2018-09-20T15:51:24.921Z,0.53
2018-09-20T15:53:52.414Z,0.40
2018-09-20T15:56:19.886Z,0.40
2018-09-20T15:58:47.310Z,0.40
2018-09-20T16:01:14.745Z,0.33
2018-09-20T16:03:42.131Z,0.70
2018-09-20T16:06:09.565Z,1.70
2018-09-20T16:08:37.041Z,1.10
2018-09-20T16:11:04.462Z,1.00
2018-09-20T16:13:31.865Z,0.97
2018-09-20T16:15:59.325Z,0.70
2018-09-20T16:18:26.838Z,0.80
2018-09-20T16:20:54.232Z,0.40
2018-09-20T16:23:21.634Z,0.60
2018-09-20T16:25:49.118Z,0.50
2018-09-20T16:29:04.013Z,0.40
2018-09-20T16:32:46.185Z,0.40
2018-09-20T16:36:01.838Z,0.50
2018-09-20T16:38:46.345Z,0.20
2018-09-20T16:41:15.311Z,0.37
2018-09-20T16:43:42.733Z,0.70
2018-09-20T16:46:10.165Z,0.50
2018-09-20T16:48:37.556Z,0.53
2018-09-20T16:51:05.045Z,0.57
2018-09-20T16:53:32.461Z,0.40
2018-09-20T16:55:59.861Z,0.80
2018-09-20T16:58:27.454Z,0.50
2018-09-20T17:00:55.062Z,0.83
2018-09-20T17:03:22.624Z,0.80
2018-09-20T17:05:50.102Z,0.80
2018-09-20T17:08:17.669Z,0.90
2018-09-20T17:10:45.134Z,1.20
2018-09-20T17:13:12.642Z,1.20
2018-09-20T17:15:40.044Z,1.07
2018-09-20T17:18:07.436Z,1.70
2018-09-20T17:20:35.015Z,1.90
2018-09-20T17:23:02.419Z,1.13
2018-09-20T17:25:29.863Z,1.17
2018-09-20T17:27:57.269Z,0.70
2018-09-20T17:30:24.754Z,1.00
2018-09-20T17:32:52.192Z,0.90
2018-09-20T17:35:20.089Z,0.90
2018-09-20T17:37:48.367Z,0.70
2018-09-20T17:40:16.821Z,0.87
2018-09-20T17:42:45.803Z,0.93
2018-09-20T17:45:13.234Z,0.90
2018-09-20T17:47:40.685Z,1.00
2018-09-20T17:50:08.144Z,1.00
2018-09-20T17:52:36.057Z,0.93
2018-09-20T17:55:04.091Z,1.03
2018-09-20T17:57:32.129Z,1.20
2018-09-20T17:59:59.542Z,1.10
2018-09-20T18:02:26.959Z,0.90
2018-09-20T18:04:54.333Z,1.00
2018-09-20T18:07:21.772Z,0.90
2018-09-20T18:09:49.300Z,0.90
2018-09-20T18:12:16.734Z,0.87
2018-09-20T18:14:44.150Z,1.00
2018-09-20T18:17:11.641Z,1.10
2018-09-20T18:19:39.041Z,0.87
2018-09-20T18:22:06.705Z,0.90
2018-09-20T18:24:34.113Z,0.87
2018-09-20T18:27:01.522Z,0.90
2018-09-20T18:29:28.967Z,0.73
2018-09-20T18:31:56.438Z,0.90
2018-09-20T18:34:23.907Z,0.77
2018-09-20T18:36:51.313Z,1.57
2018-09-20T18:39:18.823Z,0.90
2018-09-20T18:41:46.237Z,0.97
2018-09-20T18:44:13.625Z,1.00
2018-09-20T18:46:41.057Z,0.80
2018-09-20T18:49:08.678Z,1.07
2018-09-20T18:51:36.283Z,1.10
2018-09-20T18:54:03.718Z,1.10
2018-09-20T18:56:31.325Z,1.20
2018-09-20T18:58:58.792Z,1.30
2018-09-20T19:01:26.190Z,1.00
2018-09-20T19:03:53.656Z,1.30
2018-09-20T19:06:21.288Z,1.07
2018-09-20T19:08:48.677Z,1.23
2018-09-20T19:11:16.118Z,1.00
2018-09-20T19:13:43.612Z,1.10
2018-09-20T19:16:11.008Z,1.20
2018-09-20T19:18:38.742Z,1.40
2018-09-20T19:21:06.274Z,1.20
2018-09-20T19:23:33.661Z,1.30
2018-09-20T19:26:01.044Z,1.60
2018-09-20T19:28:28.464Z,1.50
2018-09-20T19:30:55.877Z,1.87
2018-09-20T19:33:23.371Z,2.40
2018-09-20T19:35:50.874Z,2.57
2018-09-20T19:38:18.266Z,2.37
2018-09-20T19:40:45.705Z,2.47
2018-09-20T19:43:13.180Z,2.67
2018-09-20T19:45:40.646Z,2.57
2018-09-20T19:48:08.086Z,2.80
2018-09-20T19:50:35.493Z,2.50
2018-09-20T19:53:02.925Z,2.10
2018-09-20T19:55:30.322Z,2.07
2018-09-20T19:57:57.718Z,2.33
2018-09-20T20:00:25.196Z,2.20
2018-09-20T20:02:52.580Z,2.40
2018-09-20T20:05:20.033Z,2.40
2018-09-20T20:07:47.442Z,2.20
2018-09-20T20:10:14.862Z,2.40
2018-09-20T20:12:42.266Z,2.57
2018-09-20T20:15:09.705Z,2.30
2018-09-20T20:17:37.085Z,2.50
2018-09-20T20:20:04.785Z,2.60
2018-09-20T20:22:32.238Z,2.60
2018-09-20T20:24:59.649Z,2.83
2018-09-20T20:27:27.044Z,2.53
2018-09-20T20:29:54.494Z,2.43
2018-09-20T20:32:21.887Z,2.60
2018-09-20T20:34:49.357Z,2.77
2018-09-20T20:37:16.758Z,3.10
2018-09-20T20:39:44.182Z,2.80
2018-09-20T20:42:11.596Z,2.60
2018-09-20T20:44:38.977Z,2.50
2018-09-20T20:47:06.434Z,2.50
2018-09-20T20:49:33.804Z,2.70
2018-09-20T20:52:01.183Z,2.67
2018-09-20T20:54:28.634Z,2.50
2018-09-20T20:56:56.070Z,2.80
2018-09-20T20:59:23.487Z,2.60
2018-09-20T21:01:50.998Z,2.90
2018-09-20T21:04:18.397Z,2.40
2018-09-20T21:06:45.803Z,2.37
2018-09-20T21:09:13.236Z,2.33
2018-09-20T21:11:40.616Z,2.80
2018-09-20T21:14:08.061Z,2.73
2018-09-20T21:16:35.450Z,2.37
2018-09-20T21:19:02.890Z,2.40
2018-09-20T21:21:30.357Z,2.13
2018-09-20T21:23:57.734Z,2.70
2018-09-20T21:26:25.167Z,2.97
2018-09-20T21:28:52.577Z,3.53
2018-09-20T21:31:19.971Z,3.97
2018-09-20T21:33:47.478Z,4.10
2018-09-20T21:36:14.917Z,4.53
2018-09-20T21:38:42.366Z,4.60
2018-09-20T21:41:09.748Z,4.57
2018-09-20T21:43:37.186Z,5.17
2018-09-20T21:46:04.608Z,5.50
2018-09-20T21:48:32.093Z,5.80
2018-09-20T21:50:59.537Z,8.10
2018-09-20T21:53:27.522Z,8.87
2018-09-20T21:55:54.905Z,9.30
2018-09-20T21:58:22.297Z,8.57
2018-09-20T22:00:53.326Z,9.17
2018-09-20T22:03:20.728Z,8.70
2018-09-20T22:05:48.146Z,8.73
2018-09-20T22:08:15.602Z,9.87
2018-09-20T22:10:43.033Z,9.57
2018-09-20T22:13:10.456Z,10.27
2018-09-20T22:15:37.856Z,10.43
2018-09-20T22:18:05.243Z,10.40
2018-09-20T22:20:32.758Z,10.40
2018-09-20T22:23:00.186Z,9.70
2018-09-20T22:25:27.546Z,9.50
2018-09-20T22:27:54.986Z,9.00
2018-09-20T22:30:22.433Z,9.23
2018-09-20T22:32:49.861Z,10.63
2018-09-20T22:35:17.274Z,10.07
2018-09-20T22:37:44.680Z,10.13
2018-09-20T22:40:12.094Z,11.90
2018-09-20T22:42:39.549Z,12.20
2018-09-20T22:45:06.981Z,12.23
2018-09-20T22:47:34.701Z,12.80
2018-09-20T22:50:02.291Z,11.97
2018-09-20T22:52:29.716Z,12.73
2018-09-20T22:54:57.146Z,12.30
2018-09-20T22:57:24.533Z,12.30
2018-09-20T22:59:51.962Z,14.53
2018-09-20T23:02:19.395Z,13.60
2018-09-20T23:04:46.780Z,11.50
2018-09-20T23:07:14.309Z,10.50
2018-09-20T23:09:41.709Z,10.73
2018-09-20T23:12:09.126Z,10.63
2018-09-20T23:14:36.559Z,12.03
2018-09-20T23:17:04.041Z,12.50
2018-09-20T23:19:31.476Z,11.17
2018-09-20T23:21:58.864Z,11.33
2018-09-20T23:24:26.239Z,11.77
2018-09-20T23:26:53.666Z,10.10
2018-09-20T23:29:21.094Z,9.80
2018-09-20T23:31:48.561Z,9.20
2018-09-20T23:34:15.964Z,9.10
2018-09-20T23:36:43.857Z,9.60
2018-09-20T23:39:12.191Z,9.63
2018-09-20T23:41:39.601Z,9.37
2018-09-20T23:44:07.391Z,8.97
2018-09-20T23:46:34.857Z,8.73
2018-09-20T23:49:02.296Z,9.20
2018-09-20T23:51:29.799Z,8.20
2018-09-20T23:53:57.217Z,8.10
2018-09-20T23:56:24.705Z,8.93
2018-09-20T23:58:52.317Z,8.20
